createdAt,value
2019-03-04T00:00:38.642Z,2.13
2019-03-04T00:03:05.830Z,2.00
2019-03-04T00:05:32.889Z,2.10
2019-03-04T00:07:59.987Z,2.00
2019-03-04T00:10:27.151Z,2.50
2019-03-04T00:12:54.434Z,1.63
2019-03-04T00:15:21.492Z,1.87
2019-03-04T00:17:48.594Z,2.30
2019-03-04T00:20:15.778Z,1.93
2019-03-04T00:22:42.836Z,1.40
2019-03-04T00:25:10.090Z,1.60
2019-03-04T00:27:37.195Z,2.10
2019-03-04T00:30:04.247Z,1.77
2019-03-04T00:32:31.425Z,2.20
2019-03-04T00:34:58.476Z,2.20
2019-03-04T00:37:25.565Z,1.73
2019-03-04T00:39:52.643Z,2.10
2019-03-04T00:42:19.818Z,1.83
2019-03-04T00:44:46.878Z,2.13
2019-03-04T00:47:14.027Z,1.87
2019-03-04T00:49:41.125Z,1.80
2019-03-04T00:52:08.191Z,1.83
2019-03-04T00:54:35.460Z,1.50
2019-03-04T00:57:02.525Z,1.83
2019-03-04T00:59:31.326Z,1.70
2019-03-04T01:01:58.654Z,1.50
2019-03-04T01:04:25.720Z,1.83
2019-03-04T01:06:52.809Z,1.80
2019-03-04T01:09:19.871Z,1.73
2019-03-04T01:11:47.057Z,1.70
2019-03-04T01:14:14.138Z,1.80
2019-03-04T01:16:41.237Z,1.63
2019-03-04T01:19:08.318Z,2.17
2019-03-04T01:21:35.419Z,1.67
2019-03-04T01:24:02.699Z,1.43
2019-03-04T01:26:29.753Z,1.60
2019-03-04T01:28:56.847Z,1.70
2019-03-04T01:31:23.916Z,1.33
2019-03-04T01:33:50.985Z,1.40
2019-03-04T01:36:18.155Z,1.50
2019-03-04T01:38:45.210Z,1.50
2019-03-04T01:41:12.302Z,1.40
2019-03-04T01:43:39.479Z,1.67
2019-03-04T01:46:06.741Z,1.53
2019-03-04T01:48:33.859Z,1.40
2019-03-04T01:51:00.925Z,1.40
2019-03-04T01:53:27.975Z,2.03
2019-03-04T01:55:55.148Z,1.60
2019-03-04T01:58:22.207Z,1.30
2019-03-04T02:00:49.303Z,1.30
2019-03-04T02:03:16.360Z,1.40
2019-03-04T02:05:43.537Z,1.37
2019-03-04T02:08:10.593Z,1.80
2019-03-04T02:10:37.694Z,1.23
2019-03-04T02:13:04.860Z,1.63
2019-03-04T02:15:32.140Z,1.63
2019-03-04T02:17:59.188Z,1.90
2019-03-04T02:20:26.285Z,1.43
2019-03-04T02:22:53.343Z,1.50
2019-03-04T02:25:20.533Z,1.30
2019-03-04T02:27:47.591Z,1.03
2019-03-04T02:30:14.683Z,1.80
2019-03-04T02:32:41.741Z,1.10
2019-03-04T02:35:08.930Z,1.30
2019-03-04T02:37:35.996Z,1.50
2019-03-04T02:40:03.062Z,1.50
2019-03-04T02:42:30.273Z,1.50
2019-03-04T02:44:57.335Z,1.37
2019-03-04T02:47:24.433Z,1.90
2019-03-04T02:49:51.486Z,1.60
2019-03-04T02:52:18.677Z,1.30
2019-03-04T02:54:45.780Z,1.30
2019-03-04T02:57:12.961Z,1.50
2019-03-04T02:59:40.016Z,1.33
2019-03-04T03:02:07.605Z,1.30
2019-03-04T03:04:34.766Z,1.50
2019-03-04T03:07:01.938Z,1.43
2019-03-04T03:09:29.005Z,1.47
2019-03-04T03:11:56.063Z,1.67
2019-03-04T03:14:23.342Z,1.67
2019-03-04T03:16:50.390Z,1.40
2019-03-04T03:19:17.493Z,1.33
2019-03-04T03:21:44.658Z,1.43
2019-03-04T03:24:11.730Z,1.50
2019-03-04T03:26:38.991Z,1.70
2019-03-04T03:29:06.050Z,2.10
2019-03-04T03:31:33.165Z,1.60
2019-03-04T03:34:00.332Z,1.40
2019-03-04T03:36:27.391Z,1.17
2019-03-04T03:38:54.464Z,1.20
2019-03-04T03:41:21.549Z,1.30
2019-03-04T03:43:48.725Z,1.40
2019-03-04T03:46:15.815Z,1.60
2019-03-04T03:48:42.880Z,1.37
2019-03-04T03:51:09.984Z,1.40
2019-03-04T03:53:37.044Z,1.50
2019-03-04T03:56:04.133Z,1.33
2019-03-04T03:58:31.238Z,1.10
2019-03-04T04:00:58.371Z,1.50
2019-03-04T04:03:25.521Z,1.37
2019-03-04T04:05:52.613Z,1.50
2019-03-04T04:08:19.670Z,1.43
2019-03-04T04:10:46.760Z,1.70
2019-03-04T04:13:13.821Z,1.23
2019-03-04T04:15:40.890Z,1.37
2019-03-04T04:18:08.212Z,1.77
2019-03-04T04:20:35.262Z,1.63
2019-03-04T04:23:02.506Z,1.47
2019-03-04T04:25:29.571Z,1.43
2019-03-04T04:27:56.657Z,1.67
2019-03-04T04:30:23.716Z,1.90
2019-03-04T04:32:50.906Z,1.50
2019-03-04T04:35:17.975Z,1.20
2019-03-04T04:37:45.025Z,1.57
2019-03-04T04:40:12.122Z,1.33
2019-03-04T04:42:39.295Z,1.37
2019-03-04T04:45:06.349Z,1.53
2019-03-04T04:47:33.459Z,1.63
2019-03-04T04:50:00.508Z,1.70
2019-03-04T04:52:27.694Z,1.63
2019-03-04T04:54:54.750Z,1.83
2019-03-04T04:57:21.830Z,1.97
2019-03-04T04:59:48.918Z,1.80
2019-03-04T05:02:16.270Z,1.87
2019-03-04T05:04:43.561Z,1.73
2019-03-04T05:07:10.632Z,1.90
2019-03-04T05:09:37.728Z,1.30
2019-03-04T05:12:04.781Z,1.43
2019-03-04T05:14:31.947Z,1.57
2019-03-04T05:16:59.027Z,1.77
2019-03-04T05:19:26.086Z,1.87
2019-03-04T05:22:04.912Z,1.90
2019-03-04T05:24:29.986Z,1.50
2019-03-04T05:26:57.054Z,1.60
2019-03-04T05:29:24.147Z,1.73
2019-03-04T05:31:51.217Z,1.67
2019-03-04T05:34:18.263Z,1.90
2019-03-04T05:36:45.616Z,1.27
2019-03-04T05:39:12.848Z,1.80
2019-03-04T05:41:39.911Z,1.60
2019-03-04T05:44:07.005Z,2.10
2019-03-04T05:46:34.057Z,1.67
2019-03-04T05:49:01.147Z,1.30
2019-03-04T05:51:28.245Z,1.80
2019-03-04T05:53:55.354Z,1.70
2019-03-04T05:56:22.451Z,1.80
2019-03-04T05:58:49.559Z,1.70
2019-03-04T06:01:16.614Z,2.00
2019-03-04T06:03:43.695Z,1.90
2019-03-04T06:06:11.006Z,2.30
2019-03-04T06:08:38.061Z,1.83
2019-03-04T06:11:05.160Z,2.20
2019-03-04T06:13:32.356Z,1.70
2019-03-04T06:15:59.444Z,1.77
2019-03-04T06:18:26.528Z,1.80
2019-03-04T06:20:53.604Z,2.13
2019-03-04T06:23:20.724Z,2.23
2019-03-04T06:25:48.011Z,2.10
2019-03-04T06:28:15.082Z,1.97
2019-03-04T06:30:42.178Z,1.63
2019-03-04T06:33:09.239Z,1.77
2019-03-04T06:35:36.667Z,1.60
2019-03-04T06:38:03.741Z,2.30
2019-03-04T06:40:37.944Z,1.80
2019-03-04T06:43:05.000Z,1.60
2019-03-04T06:45:32.095Z,1.80
2019-03-04T06:47:59.153Z,1.90
2019-03-04T06:50:26.224Z,2.00
2019-03-04T06:52:53.318Z,1.73
2019-03-04T06:55:20.869Z,2.00
2019-03-04T06:57:47.981Z,2.10
2019-03-04T07:00:15.407Z,2.20
2019-03-04T07:02:42.533Z,2.00
2019-03-04T07:05:09.594Z,1.80
2019-03-04T07:07:36.693Z,1.90
2019-03-04T07:10:03.856Z,1.70
2019-03-04T07:12:31.117Z,1.80
2019-03-04T07:14:58.202Z,1.97
2019-03-04T07:17:25.298Z,1.93
2019-03-04T07:19:52.391Z,2.40
2019-03-04T07:22:19.515Z,2.23
2019-03-04T07:24:46.609Z,2.27
2019-03-04T07:27:13.695Z,1.80
2019-03-04T07:29:40.755Z,1.97
2019-03-04T07:32:07.878Z,1.73
2019-03-04T07:34:34.962Z,1.50
2019-03-04T07:37:02.027Z,1.87
2019-03-04T07:39:29.108Z,1.70
2019-03-04T07:41:56.307Z,2.37
2019-03-04T07:44:23.365Z,1.60
2019-03-04T07:46:50.454Z,2.00
2019-03-04T07:49:17.550Z,1.70
2019-03-04T07:51:44.630Z,1.90
2019-03-04T07:54:11.719Z,1.83
2019-03-04T07:56:38.805Z,2.10
2019-03-04T07:59:05.899Z,2.20
2019-03-04T08:01:32.987Z,2.00
2019-03-04T08:04:00.196Z,1.60
2019-03-04T08:06:27.398Z,2.00
2019-03-04T08:08:54.492Z,1.83
2019-03-04T08:11:21.555Z,1.70
2019-03-04T08:13:48.751Z,1.93
2019-03-04T08:16:15.840Z,1.67
2019-03-04T08:18:42.903Z,2.00
2019-03-04T08:21:10.098Z,1.50
2019-03-04T08:23:37.355Z,1.87
2019-03-04T08:26:04.430Z,2.00
2019-03-04T08:28:31.500Z,1.70
2019-03-04T08:30:58.638Z,1.83
2019-03-04T08:33:25.748Z,1.90
2019-03-04T08:35:52.816Z,1.90
2019-03-04T08:38:19.878Z,1.43
2019-03-04T08:40:46.971Z,1.70
2019-03-04T08:43:14.033Z,1.50
2019-03-04T08:45:41.118Z,1.70
2019-03-04T08:48:08.203Z,1.67
2019-03-04T08:50:35.257Z,1.83
2019-03-04T08:53:02.550Z,1.67
2019-03-04T08:55:29.719Z,1.50
2019-03-04T08:57:56.894Z,2.17
2019-03-04T09:00:24.119Z,1.13
2019-03-04T09:02:51.221Z,1.60
2019-03-04T09:05:18.389Z,1.30
2019-03-04T09:07:45.471Z,1.40
2019-03-04T09:10:12.534Z,1.30
2019-03-04T09:12:39.836Z,1.50
2019-03-04T09:15:07.242Z,1.47
2019-03-04T09:17:34.321Z,1.60
2019-03-04T09:20:01.407Z,1.30
2019-03-04T09:22:28.465Z,1.30
2019-03-04T09:24:55.603Z,1.47
2019-03-04T09:27:22.742Z,1.40
2019-03-04T09:29:49.842Z,1.20
2019-03-04T09:32:17.543Z,1.40
2019-03-04T09:34:44.821Z,1.30
2019-03-04T09:37:11.904Z,1.30
2019-03-04T09:39:39.052Z,1.10
2019-03-04T09:42:06.127Z,1.33
2019-03-04T09:44:33.179Z,1.60
2019-03-04T09:47:00.285Z,1.60
2019-03-04T09:49:27.366Z,0.90
2019-03-04T09:51:54.543Z,1.40
2019-03-04T09:54:21.601Z,1.33
2019-03-04T09:56:48.679Z,1.20
2019-03-04T09:59:15.756Z,1.07
2019-03-04T10:01:42.910Z,1.67
2019-03-04T10:04:09.974Z,1.03
2019-03-04T10:06:37.070Z,1.40
2019-03-04T10:09:04.139Z,1.00
2019-03-04T10:11:31.198Z,0.90
2019-03-04T10:13:58.394Z,1.00
2019-03-04T10:16:25.457Z,1.33
2019-03-04T10:18:52.555Z,1.03
2019-03-04T10:21:21.987Z,1.00
2019-03-04T10:23:49.247Z,0.83
2019-03-04T10:26:22.533Z,0.90
2019-03-04T10:28:45.109Z,1.00
2019-03-04T10:31:12.226Z,1.00
2019-03-04T10:33:39.286Z,0.93
2019-03-04T10:36:06.544Z,1.13
2019-03-04T10:38:33.597Z,0.80
2019-03-04T10:41:00.667Z,0.77
2019-03-04T10:43:27.889Z,1.03
2019-03-04T10:45:54.945Z,0.97
2019-03-04T10:48:22.034Z,1.03
2019-03-04T10:50:52.156Z,1.03
2019-03-04T10:53:19.390Z,1.00
2019-03-04T10:55:46.435Z,0.90
2019-03-04T10:58:13.521Z,1.00
2019-03-04T11:00:40.583Z,0.83
2019-03-04T11:03:07.738Z,1.17
2019-03-04T11:05:34.821Z,1.20
2019-03-04T11:08:01.954Z,1.20
2019-03-04T11:10:29.651Z,0.70
2019-03-04T11:12:56.800Z,0.70
2019-03-04T11:15:23.994Z,1.00
2019-03-04T11:17:51.376Z,1.30
2019-03-04T11:20:18.696Z,1.17
2019-03-04T11:22:45.860Z,1.27
2019-03-04T11:25:13.269Z,1.40
2019-03-04T11:27:40.392Z,1.10
2019-03-04T11:30:07.454Z,1.50
2019-03-04T11:32:34.590Z,2.57
2019-03-04T11:35:01.670Z,1.30
2019-03-04T11:37:28.729Z,1.93
2019-03-04T11:39:55.792Z,1.20
2019-03-04T11:42:22.955Z,1.27
2019-03-04T11:44:50.056Z,1.00
2019-03-04T11:47:17.557Z,1.20
2019-03-04T11:49:44.663Z,1.67
2019-03-04T11:52:11.722Z,1.20
2019-03-04T11:54:39.015Z,1.30
2019-03-04T11:57:06.087Z,1.20
2019-03-04T11:59:33.182Z,1.73
2019-03-04T12:02:00.367Z,1.50
2019-03-04T12:04:27.429Z,1.40
2019-03-04T12:06:54.533Z,1.20
2019-03-04T12:09:21.617Z,1.60
2019-03-04T12:11:48.694Z,1.40
2019-03-04T12:14:15.778Z,1.17
2019-03-04T12:16:42.947Z,1.40
2019-03-04T12:19:10.038Z,1.83
2019-03-04T12:21:37.147Z,1.80
2019-03-04T12:24:04.233Z,2.07
2019-03-04T12:26:31.299Z,1.63
2019-03-04T12:28:58.388Z,1.00
2019-03-04T12:31:25.493Z,1.07
2019-03-04T12:33:52.609Z,1.30
2019-03-04T12:36:19.914Z,1.53
2019-03-04T12:38:46.993Z,1.10
2019-03-04T12:41:14.126Z,2.00
2019-03-04T12:43:41.206Z,1.20
2019-03-04T12:46:08.267Z,1.70
2019-03-04T12:48:35.372Z,1.40
2019-03-04T12:51:02.448Z,1.53
2019-03-04T12:53:36.980Z,1.80
2019-03-04T12:55:58.348Z,1.20
2019-03-04T12:58:25.467Z,1.10
2019-03-04T13:00:52.650Z,1.30
2019-03-04T13:03:19.719Z,1.67
2019-03-04T13:05:46.879Z,1.30
2019-03-04T13:08:13.941Z,1.40
2019-03-04T13:10:41.083Z,1.00
2019-03-04T13:13:08.229Z,0.87
2019-03-04T13:15:35.295Z,1.00
2019-03-04T13:18:02.406Z,1.27
2019-03-04T13:20:29.468Z,0.80
2019-03-04T13:22:56.633Z,1.40
2019-03-04T13:25:23.745Z,1.40
2019-03-04T13:27:50.844Z,1.47
2019-03-04T13:30:17.899Z,1.20
2019-03-04T13:32:44.956Z,1.30
2019-03-04T13:35:12.089Z,0.87
2019-03-04T13:37:39.168Z,1.53
2019-03-04T13:40:06.331Z,1.30
2019-03-04T13:42:33.406Z,0.90
2019-03-04T13:45:00.702Z,0.90
2019-03-04T13:47:27.799Z,0.87
2019-03-04T13:49:54.865Z,1.30
2019-03-04T13:52:22.025Z,1.10
2019-03-04T13:54:49.126Z,1.07
2019-03-04T13:57:16.178Z,1.20
2019-03-04T13:59:43.264Z,0.90
2019-03-04T14:02:10.316Z,1.10
2019-03-04T14:04:37.471Z,0.93
2019-03-04T14:07:04.590Z,1.00
2019-03-04T14:09:31.706Z,1.20
2019-03-04T14:11:59.006Z,1.30
2019-03-04T14:14:26.108Z,1.23
2019-03-04T14:16:53.193Z,0.90
2019-03-04T14:19:20.252Z,1.17
2019-03-04T14:21:47.515Z,1.23
2019-03-04T14:24:14.613Z,1.40
2019-03-04T14:26:41.703Z,1.10
2019-03-04T14:29:08.769Z,1.10
2019-03-04T14:31:35.888Z,0.97
2019-03-04T14:34:03.854Z,1.43
2019-03-04T14:36:30.955Z,1.17
2019-03-04T14:38:58.067Z,0.83
2019-03-04T14:41:25.115Z,1.17
2019-03-04T14:43:53.603Z,1.00
2019-03-04T14:46:20.757Z,1.07
2019-03-04T14:48:47.810Z,1.20
2019-03-04T14:51:14.945Z,1.10
2019-03-04T14:53:42.002Z,1.20
2019-03-04T14:56:09.109Z,0.90
2019-03-04T14:58:36.422Z,1.10
2019-03-04T15:01:05.315Z,1.00
2019-03-04T15:03:32.635Z,1.00
2019-03-04T15:06:06.563Z,1.03
2019-03-04T15:08:28.562Z,1.20
2019-03-04T15:10:55.733Z,1.60
2019-03-04T15:13:22.997Z,1.00
2019-03-04T15:15:50.071Z,1.03
2019-03-04T15:18:17.257Z,0.83
2019-03-04T15:20:44.315Z,0.90
2019-03-04T15:23:11.373Z,1.13
2019-03-04T15:25:38.642Z,1.00
2019-03-04T15:28:05.754Z,0.70
2019-03-04T15:30:32.825Z,1.40
2019-03-04T15:32:59.985Z,1.00
2019-03-04T15:35:27.095Z,1.23
2019-03-04T15:37:54.182Z,1.10
2019-03-04T15:40:21.262Z,0.80
2019-03-04T15:42:48.341Z,1.10
2019-03-04T15:45:15.435Z,1.37
2019-03-04T15:47:42.521Z,0.93
2019-03-04T15:50:09.590Z,1.00
2019-03-04T15:52:36.794Z,1.10
2019-03-04T15:55:03.893Z,1.00
2019-03-04T15:57:30.993Z,1.00
2019-03-04T15:59:58.065Z,0.87
2019-03-04T16:02:25.606Z,1.50
2019-03-04T16:04:52.811Z,1.10
2019-03-04T16:07:19.884Z,1.20
2019-03-04T16:09:46.993Z,1.40
2019-03-04T16:12:14.063Z,1.13
2019-03-04T16:14:41.125Z,1.23
2019-03-04T16:17:08.285Z,0.97
2019-03-04T16:19:35.343Z,0.90
2019-03-04T16:22:02.440Z,0.80
2019-03-04T16:24:29.524Z,1.20
2019-03-04T16:26:56.670Z,0.90
2019-03-04T16:29:23.725Z,1.70
2019-03-04T16:31:50.822Z,1.23
2019-03-04T16:34:17.921Z,1.03
2019-03-04T16:36:44.982Z,1.20
2019-03-04T16:39:12.039Z,1.17
2019-03-04T16:41:39.153Z,1.20
2019-03-04T16:44:06.219Z,1.07
2019-03-04T16:46:33.320Z,1.00
2019-03-04T16:49:00.515Z,1.00
2019-03-04T16:51:27.583Z,1.00
2019-03-04T16:53:54.816Z,1.00
2019-03-04T16:56:21.858Z,1.20
2019-03-04T16:58:48.929Z,1.00
2019-03-04T17:01:16.051Z,0.80
2019-03-04T17:03:43.105Z,1.03
2019-03-04T17:06:10.207Z,0.80
2019-03-04T17:08:37.576Z,1.23
2019-03-04T17:11:04.759Z,1.30
2019-03-04T17:13:32.036Z,0.90
2019-03-04T17:15:59.099Z,0.87
2019-03-04T17:18:26.196Z,1.13
2019-03-04T17:20:53.306Z,1.00
2019-03-04T17:23:20.380Z,1.13
2019-03-04T17:25:47.696Z,1.17
2019-03-04T17:28:14.747Z,1.63
2019-03-04T17:30:41.851Z,1.13
2019-03-04T17:33:08.935Z,1.00
2019-03-04T17:35:36.023Z,1.00
2019-03-04T17:38:03.082Z,0.90
2019-03-04T17:40:30.175Z,0.80
2019-03-04T17:42:57.249Z,0.83
2019-03-04T17:45:24.656Z,1.00
2019-03-04T17:47:51.894Z,0.87
2019-03-04T17:50:18.997Z,0.80
2019-03-04T17:52:46.219Z,1.10
2019-03-04T17:55:13.279Z,1.03
2019-03-04T17:57:40.463Z,1.00
2019-03-04T18:00:07.545Z,1.20
2019-03-04T18:02:34.828Z,1.20
2019-03-04T18:05:01.888Z,0.90
2019-03-04T18:07:28.986Z,1.23
2019-03-04T18:09:56.044Z,0.87
2019-03-04T18:12:23.100Z,0.70
2019-03-04T18:14:50.255Z,1.37
2019-03-04T18:17:17.565Z,1.00
2019-03-04T18:19:44.782Z,0.70
2019-03-04T18:22:11.850Z,0.93
2019-03-04T18:24:38.909Z,0.60
2019-03-04T18:27:06.264Z,1.00
2019-03-04T18:29:33.454Z,0.63
2019-03-04T18:32:00.602Z,0.80
2019-03-04T18:34:27.704Z,0.73
2019-03-04T18:36:54.786Z,0.80
2019-03-04T18:39:21.851Z,0.70
2019-03-04T18:41:48.948Z,0.90
2019-03-04T18:44:16.006Z,0.70
2019-03-04T18:46:43.150Z,0.90
2019-03-04T18:49:10.257Z,0.73
2019-03-04T18:51:37.309Z,0.97
2019-03-04T18:54:12.858Z,0.70
2019-03-04T18:56:42.244Z,0.80
2019-03-04T18:59:13.499Z,0.70
2019-03-04T19:01:42.659Z,0.97
2019-03-04T19:04:13.563Z,0.73
2019-03-04T19:06:44.078Z,0.70
2019-03-04T19:09:16.555Z,0.80
2019-03-04T19:11:53.295Z,0.87
2019-03-04T19:14:22.478Z,0.80
2019-03-04T19:16:53.859Z,1.23
2019-03-04T19:19:23.767Z,1.00
2019-03-04T19:21:57.048Z,1.10
2019-03-04T19:24:27.452Z,1.30
2019-03-04T19:27:02.234Z,1.00
2019-03-04T19:29:35.991Z,1.10
2019-03-04T19:35:02.241Z,1.50
2019-03-04T19:37:34.613Z,0.83
2019-03-04T19:40:06.212Z,0.80
2019-03-04T19:42:37.684Z,0.70
2019-03-04T19:45:10.497Z,1.10
2019-03-04T19:47:37.780Z,1.07
2019-03-04T19:50:11.641Z,0.73
2019-03-04T19:52:45.557Z,0.80
2019-03-04T19:55:15.919Z,0.90
2019-03-04T19:57:49.875Z,0.83
2019-03-04T20:00:26.009Z,0.80
2019-03-04T20:02:52.241Z,0.73
2019-03-04T20:05:19.325Z,1.30
2019-03-04T20:07:46.379Z,0.70
2019-03-04T20:10:13.470Z,0.77
2019-03-04T20:12:40.530Z,0.83
2019-03-04T20:15:07.683Z,0.70
2019-03-04T20:17:34.818Z,0.60
2019-03-04T20:20:01.880Z,0.67
2019-03-04T20:22:28.991Z,0.93
2019-03-04T20:24:56.055Z,0.70
2019-03-04T20:27:23.166Z,0.90
2019-03-04T20:29:50.244Z,0.80
2019-03-04T20:32:17.882Z,0.70
2019-03-04T20:34:45.014Z,0.50
2019-03-04T20:37:12.109Z,0.70
2019-03-04T20:39:39.211Z,0.60
2019-03-04T20:42:06.267Z,0.57
2019-03-04T20:44:33.479Z,0.60
2019-03-04T20:47:00.535Z,0.60
2019-03-04T20:49:27.589Z,0.60
2019-03-04T20:51:54.693Z,0.90
2019-03-04T20:54:21.777Z,1.10
2019-03-04T20:56:59.512Z,0.50
2019-03-04T20:59:24.435Z,0.77
2019-03-04T21:01:51.525Z,0.60
2019-03-04T21:04:18.673Z,0.57
2019-03-04T21:06:45.761Z,0.80
2019-03-04T21:09:12.859Z,1.63
2019-03-04T21:11:40.089Z,0.60
2019-03-04T21:14:07.156Z,0.87
2019-03-04T21:16:34.522Z,0.60
2019-03-04T21:19:01.637Z,0.60
2019-03-04T21:21:28.775Z,0.80
2019-03-04T21:23:56.067Z,0.50
2019-03-04T21:26:23.132Z,0.60
2019-03-04T21:28:50.241Z,0.53
2019-03-04T21:31:17.289Z,0.50
2019-03-04T21:33:44.380Z,0.40
2019-03-04T21:36:13.703Z,0.60
2019-03-04T21:38:40.419Z,0.70
2019-03-04T21:41:07.504Z,0.43
2019-03-04T21:43:34.712Z,0.50
2019-03-04T21:46:01.763Z,0.50
2019-03-04T21:48:28.897Z,0.60
2019-03-04T21:50:56.005Z,0.60
2019-03-04T21:53:23.133Z,0.50
2019-03-04T21:55:50.359Z,0.60
2019-03-04T21:58:17.481Z,0.77
2019-03-04T22:00:46.203Z,0.60
2019-03-04T22:03:13.538Z,0.83
2019-03-04T22:05:49.850Z,0.67
2019-03-04T22:08:09.392Z,0.60
2019-03-04T22:10:36.476Z,0.60
2019-03-04T22:13:03.784Z,0.50
2019-03-04T22:15:30.888Z,0.60
2019-03-04T22:17:57.973Z,0.50
2019-03-04T22:20:25.120Z,0.70
2019-03-04T22:22:52.238Z,1.10
2019-03-04T22:25:19.446Z,0.83
2019-03-04T22:27:46.527Z,0.60
2019-03-04T22:30:13.639Z,0.57
2019-03-04T22:32:40.816Z,0.57
2019-03-04T22:35:07.925Z,0.60
2019-03-04T22:37:35.022Z,0.50
2019-03-04T22:40:02.100Z,0.50
2019-03-04T22:42:29.449Z,0.60
2019-03-04T22:44:56.664Z,0.50
2019-03-04T22:47:24.230Z,0.50
2019-03-04T22:49:51.496Z,0.70
2019-03-04T22:52:18.608Z,0.60
2019-03-04T22:54:45.720Z,0.60
2019-03-04T22:57:12.963Z,0.50
2019-03-04T22:59:40.026Z,0.50
2019-03-04T23:02:07.244Z,0.80
2019-03-04T23:04:34.357Z,0.47
2019-03-04T23:07:01.530Z,0.50
2019-03-04T23:09:28.612Z,0.60
2019-03-04T23:11:55.702Z,0.47
2019-03-04T23:14:23.668Z,0.90
2019-03-04T23:16:50.860Z,1.23
2019-03-04T23:19:17.973Z,0.50
2019-03-04T23:21:45.412Z,0.43
2019-03-04T23:24:12.508Z,0.50
2019-03-04T23:26:39.675Z,0.50
2019-03-04T23:29:06.737Z,0.53
2019-03-04T23:31:33.812Z,0.53
2019-03-04T23:34:01.225Z,0.60
2019-03-04T23:36:28.364Z,0.60
2019-03-04T23:38:55.523Z,0.60
2019-03-04T23:41:22.616Z,0.60
2019-03-04T23:43:49.758Z,0.70
2019-03-04T23:46:16.913Z,0.73
2019-03-04T23:48:44.039Z,1.10
2019-03-04T23:51:11.144Z,0.40
2019-03-04T23:53:38.260Z,0.70
2019-03-04T23:56:05.382Z,0.50
2019-03-04T23:58:32.479Z,0.80
